sensor_id;sensor_type;location;lat;lon;timestamp;P1;durP1;ratioP1;P2;durP2;ratioP2
55609;SDS011;41486;52.502;13.486;2023-09-08T00:00:19;5.00;;;4.20;;
55609;SDS011;41486;52.502;13.486;2023-09-08T00:02:48;6.28;;;4.18;;
55609;SDS011;41486;52.502;13.486;2023-09-08T00:05:17;5.20;;;4.32;;
55609;SDS011;41486;52.502;13.486;2023-09-08T00:07:45;4.88;;;3.70;;
55609;SDS011;41486;52.502;13.486;2023-09-08T00:10:13;5.25;;;4.20;;
55609;SDS011;41486;52.502;13.486;2023-09-08T00:12:41;7.57;;;4.38;;
55609;SDS011;41486;52.502;13.486;2023-09-08T00:15:10;6.10;;;5.18;;
55609;SDS011;41486;52.502;13.486;2023-09-08T00:17:38;5.20;;;4.47;;
55609;SDS011;41486;52.502;13.486;2023-09-08T00:20:07;7.13;;;4.78;;
55609;SDS011;41486;52.502;13.486;2023-09-08T00:22:38;7.53;;;4.95;;
55609;SDS011;41486;52.502;13.486;2023-09-08T00:25:07;6.57;;;4.38;;
55609;SDS011;41486;52.502;13.486;2023-09-08T00:27:35;6.72;;;4.70;;
55609;SDS011;41486;52.502;13.486;2023-09-08T00:30:03;5.43;;;4.60;;
55609;SDS011;41486;52.502;13.486;2023-09-08T00:32:32;6.47;;;4.57;;
55609;SDS011;41486;52.502;13.486;2023-09-08T00:35:00;5.45;;;4.78;;
55609;SDS011;41486;52.502;13.486;2023-09-08T00:37:28;6.18;;;5.10;;
55609;SDS011;41486;52.502;13.486;2023-09-08T00:39:58;6.38;;;5.32;;
55609;SDS011;41486;52.502;13.486;2023-09-08T00:42:26;5.70;;;4.57;;
55609;SDS011;41486;52.502;13.486;2023-09-08T00:44:54;7.00;;;5.18;;
55609;SDS011;41486;52.502;13.486;2023-09-08T00:47:21;8.05;;;4.78;;
55609;SDS011;41486;52.502;13.486;2023-09-08T00:49:50;5.57;;;5.03;;
55609;SDS011;41486;52.502;13.486;2023-09-08T00:52:18;6.40;;;5.05;;
55609;SDS011;41486;52.502;13.486;2023-09-08T00:54:46;7.45;;;5.10;;
55609;SDS011;41486;52.502;13.486;2023-09-08T00:57:16;6.28;;;4.60;;
55609;SDS011;41486;52.502;13.486;2023-09-08T00:59:43;7.13;;;4.95;;
55609;SDS011;41486;52.502;13.486;2023-09-08T01:02:12;7.53;;;4.93;;
55609;SDS011;41486;52.502;13.486;2023-09-08T01:04:40;8.02;;;4.35;;
55609;SDS011;41486;52.502;13.486;2023-09-08T01:07:08;8.00;;;5.43;;
55609;SDS011;41486;52.502;13.486;2023-09-08T01:09:38;5.35;;;4.22;;
55609;SDS011;41486;52.502;13.486;2023-09-08T01:12:08;12.85;;;4.75;;
55609;SDS011;41486;52.502;13.486;2023-09-08T01:14:38;6.03;;;4.18;;
55609;SDS011;41486;52.502;13.486;2023-09-08T01:17:05;5.25;;;4.38;;
55609;SDS011;41486;52.502;13.486;2023-09-08T01:19:33;6.47;;;4.50;;
55609;SDS011;41486;52.502;13.486;2023-09-08T01:22:17;5.75;;;4.68;;
55609;SDS011;41486;52.502;13.486;2023-09-08T01:27:46;6.13;;;3.70;;
55609;SDS011;41486;52.502;13.486;2023-09-08T01:30:17;7.00;;;4.05;;
55609;SDS011;41486;52.502;13.486;2023-09-08T01:32:47;5.90;;;4.07;;
55609;SDS011;41486;52.502;13.486;2023-09-08T01:35:17;5.10;;;4.57;;
55609;SDS011;41486;52.502;13.486;2023-09-08T01:37:46;7.05;;;4.70;;
55609;SDS011;41486;52.502;13.486;2023-09-08T01:40:17;8.93;;;4.78;;
55609;SDS011;41486;52.502;13.486;2023-09-08T01:42:47;5.03;;;4.45;;
55609;SDS011;41486;52.502;13.486;2023-09-08T01:45:16;6.07;;;4.10;;
55609;SDS011;41486;52.502;13.486;2023-09-08T01:47:44;5.35;;;4.22;;
55609;SDS011;41486;52.502;13.486;2023-09-08T01:50:12;6.57;;;4.60;;
55609;SDS011;41486;52.502;13.486;2023-09-08T01:52:44;6.30;;;4.63;;
55609;SDS011;41486;52.502;13.486;2023-09-08T01:55:13;5.82;;;4.47;;
55609;SDS011;41486;52.502;13.486;2023-09-08T01:57:43;5.32;;;3.97;;
55609;SDS011;41486;52.502;13.486;2023-09-08T02:00:11;6.15;;;4.20;;
55609;SDS011;41486;52.502;13.486;2023-09-08T02:02:40;6.00;;;4.50;;
55609;SDS011;41486;52.502;13.486;2023-09-08T02:05:08;7.43;;;4.97;;
55609;SDS011;41486;52.502;13.486;2023-09-08T02:07:36;6.13;;;4.70;;
55609;SDS011;41486;52.502;13.486;2023-09-08T02:10:04;7.28;;;4.35;;
55609;SDS011;41486;52.502;13.486;2023-09-08T02:12:33;5.35;;;4.25;;
55609;SDS011;41486;52.502;13.486;2023-09-08T02:15:03;5.90;;;4.53;;
55609;SDS011;41486;52.502;13.486;2023-09-08T02:17:33;5.78;;;4.60;;
55609;SDS011;41486;52.502;13.486;2023-09-08T02:20:07;10.15;;;4.50;;
55609;SDS011;41486;52.502;13.486;2023-09-08T02:22:45;6.10;;;4.10;;
55609;SDS011;41486;52.502;13.486;2023-09-08T02:25:16;5.22;;;3.90;;
55609;SDS011;41486;52.502;13.486;2023-09-08T02:27:44;6.55;;;4.65;;
55609;SDS011;41486;52.502;13.486;2023-09-08T02:30:14;6.80;;;4.53;;
55609;SDS011;41486;52.502;13.486;2023-09-08T02:32:42;5.38;;;4.15;;
55609;SDS011;41486;52.502;13.486;2023-09-08T02:35:12;5.22;;;4.40;;
55609;SDS011;41486;52.502;13.486;2023-09-08T02:37:40;5.35;;;4.72;;
55609;SDS011;41486;52.502;13.486;2023-09-08T02:40:08;5.80;;;4.55;;
55609;SDS011;41486;52.502;13.486;2023-09-08T02:42:38;5.63;;;4.30;;
55609;SDS011;41486;52.502;13.486;2023-09-08T02:45:06;6.38;;;4.40;;
55609;SDS011;41486;52.502;13.486;2023-09-08T02:47:36;7.18;;;4.63;;
55609;SDS011;41486;52.502;13.486;2023-09-08T02:50:05;5.53;;;4.00;;
55609;SDS011;41486;52.502;13.486;2023-09-08T02:52:34;6.47;;;4.70;;
55609;SDS011;41486;52.502;13.486;2023-09-08T02:55:02;7.10;;;4.45;;
55609;SDS011;41486;52.502;13.486;2023-09-08T02:57:30;6.07;;;5.00;;
55609;SDS011;41486;52.502;13.486;2023-09-08T03:00:04;5.50;;;4.43;;
55609;SDS011;41486;52.502;13.486;2023-09-08T03:02:34;6.80;;;4.53;;
55609;SDS011;41486;52.502;13.486;2023-09-08T03:05:04;6.78;;;4.65;;
55609;SDS011;41486;52.502;13.486;2023-09-08T03:07:33;6.68;;;4.72;;
55609;SDS011;41486;52.502;13.486;2023-09-08T03:10:04;7.28;;;4.43;;
55609;SDS011;41486;52.502;13.486;2023-09-08T03:12:33;5.47;;;4.65;;
55609;SDS011;41486;52.502;13.486;2023-09-08T03:15:01;5.90;;;5.30;;
55609;SDS011;41486;52.502;13.486;2023-09-08T03:17:29;5.80;;;4.45;;
55609;SDS011;41486;52.502;13.486;2023-09-08T03:19:59;6.38;;;5.07;;
55609;SDS011;41486;52.502;13.486;2023-09-08T03:22:29;8.98;;;5.35;;
55609;SDS011;41486;52.502;13.486;2023-09-08T03:24:57;7.10;;;5.45;;
55609;SDS011;41486;52.502;13.486;2023-09-08T03:27:25;6.93;;;5.35;;
55609;SDS011;41486;52.502;13.486;2023-09-08T03:29:53;7.93;;;5.10;;
55609;SDS011;41486;52.502;13.486;2023-09-08T03:32:21;7.55;;;4.97;;
55609;SDS011;41486;52.502;13.486;2023-09-08T03:34:53;5.72;;;5.20;;
55609;SDS011;41486;52.502;13.486;2023-09-08T03:37:21;8.23;;;5.88;;
55609;SDS011;41486;52.502;13.486;2023-09-08T03:39:51;6.93;;;5.10;;
55609;SDS011;41486;52.502;13.486;2023-09-08T03:42:19;5.88;;;5.00;;
55609;SDS011;41486;52.502;13.486;2023-09-08T03:44:47;7.00;;;5.90;;
55609;SDS011;41486;52.502;13.486;2023-09-08T03:47:15;6.70;;;5.10;;
55609;SDS011;41486;52.502;13.486;2023-09-08T03:49:43;11.15;;;5.63;;
55609;SDS011;41486;52.502;13.486;2023-09-08T03:52:11;6.07;;;4.93;;
55609;SDS011;41486;52.502;13.486;2023-09-08T03:54:40;7.95;;;4.55;;
55609;SDS011;41486;52.502;13.486;2023-09-08T03:57:10;6.57;;;5.47;;
55609;SDS011;41486;52.502;13.486;2023-09-08T03:59:38;9.30;;;6.22;;
55609;SDS011;41486;52.502;13.486;2023-09-08T04:02:06;10.50;;;5.30;;
55609;SDS011;41486;52.502;13.486;2023-09-08T04:04:35;8.35;;;5.65;;
55609;SDS011;41486;52.502;13.486;2023-09-08T04:07:03;7.60;;;5.03;;
55609;SDS011;41486;52.502;13.486;2023-09-08T04:09:31;8.80;;;6.43;;
55609;SDS011;41486;52.502;13.486;2023-09-08T04:11:59;8.43;;;5.78;;
55609;SDS011;41486;52.502;13.486;2023-09-08T04:14:30;5.90;;;5.07;;
55609;SDS011;41486;52.502;13.486;2023-09-08T04:17:00;6.85;;;6.10;;
55609;SDS011;41486;52.502;13.486;2023-09-08T04:19:29;7.88;;;6.28;;
55609;SDS011;41486;52.502;13.486;2023-09-08T04:21:57;13.23;;;6.53;;
55609;SDS011;41486;52.502;13.486;2023-09-08T04:24:25;12.48;;;6.30;;
55609;SDS011;41486;52.502;13.486;2023-09-08T04:26:53;10.25;;;6.05;;
55609;SDS011;41486;52.502;13.486;2023-09-08T04:29:21;8.75;;;6.15;;
55609;SDS011;41486;52.502;13.486;2023-09-08T04:31:55;7.25;;;5.38;;
55609;SDS011;41486;52.502;13.486;2023-09-08T04:34:23;9.55;;;6.22;;
55609;SDS011;41486;52.502;13.486;2023-09-08T04:36:51;8.00;;;5.68;;
55609;SDS011;41486;52.502;13.486;2023-09-08T04:39:20;10.60;;;6.07;;
55609;SDS011;41486;52.502;13.486;2023-09-08T04:41:49;10.45;;;6.00;;
55609;SDS011;41486;52.502;13.486;2023-09-08T04:44:17;8.73;;;6.35;;
55609;SDS011;41486;52.502;13.486;2023-09-08T04:46:45;7.53;;;6.50;;
55609;SDS011;41486;52.502;13.486;2023-09-08T04:49:15;7.45;;;6.25;;
55609;SDS011;41486;52.502;13.486;2023-09-08T04:51:43;8.88;;;6.35;;
55609;SDS011;41486;52.502;13.486;2023-09-08T04:54:15;7.65;;;5.72;;
55609;SDS011;41486;52.502;13.486;2023-09-08T04:56:44;9.50;;;6.72;;
55609;SDS011;41486;52.502;13.486;2023-09-08T04:59:13;7.30;;;6.07;;
55609;SDS011;41486;52.502;13.486;2023-09-08T05:01:41;9.10;;;6.35;;
55609;SDS011;41486;52.502;13.486;2023-09-08T05:04:11;14.25;;;7.03;;
55609;SDS011;41486;52.502;13.486;2023-09-08T05:06:41;7.78;;;5.90;;
55609;SDS011;41486;52.502;13.486;2023-09-08T05:09:09;9.73;;;6.03;;
55609;SDS011;41486;52.502;13.486;2023-09-08T05:11:38;8.52;;;6.30;;
55609;SDS011;41486;52.502;13.486;2023-09-08T05:14:06;6.78;;;5.93;;
55609;SDS011;41486;52.502;13.486;2023-09-08T05:16:35;9.98;;;5.75;;
55609;SDS011;41486;52.502;13.486;2023-09-08T05:19:16;8.57;;;5.95;;
55609;SDS011;41486;52.502;13.486;2023-09-08T05:21:45;9.48;;;6.78;;
55609;SDS011;41486;52.502;13.486;2023-09-08T05:24:14;9.38;;;6.05;;
55609;SDS011;41486;52.502;13.486;2023-09-08T05:26:42;10.50;;;6.80;;
55609;SDS011;41486;52.502;13.486;2023-09-08T05:29:10;12.18;;;6.82;;
55609;SDS011;41486;52.502;13.486;2023-09-08T05:31:38;10.52;;;6.50;;
55609;SDS011;41486;52.502;13.486;2023-09-08T05:34:07;7.68;;;6.47;;
55609;SDS011;41486;52.502;13.486;2023-09-08T05:36:35;9.88;;;6.57;;
55609;SDS011;41486;52.502;13.486;2023-09-08T05:39:10;6.93;;;5.70;;
55609;SDS011;41486;52.502;13.486;2023-09-08T05:41:40;8.35;;;6.20;;
55609;SDS011;41486;52.502;13.486;2023-09-08T05:44:09;8.68;;;6.50;;
55609;SDS011;41486;52.502;13.486;2023-09-08T05:46:38;8.25;;;6.63;;
55609;SDS011;41486;52.502;13.486;2023-09-08T05:49:11;8.73;;;6.32;;
55609;SDS011;41486;52.502;13.486;2023-09-08T05:51:41;7.28;;;6.13;;
55609;SDS011;41486;52.502;13.486;2023-09-08T05:54:11;9.18;;;6.22;;
55609;SDS011;41486;52.502;13.486;2023-09-08T05:56:39;8.82;;;6.72;;
55609;SDS011;41486;52.502;13.486;2023-09-08T05:59:07;8.80;;;6.22;;
55609;SDS011;41486;52.502;13.486;2023-09-08T06:01:35;10.95;;;6.63;;
55609;SDS011;41486;52.502;13.486;2023-09-08T06:04:06;12.18;;;6.57;;
55609;SDS011;41486;52.502;13.486;2023-09-08T06:06:35;16.35;;;7.07;;
55609;SDS011;41486;52.502;13.486;2023-09-08T06:09:05;15.40;;;7.55;;
55609;SDS011;41486;52.502;13.486;2023-09-08T06:11:37;15.82;;;6.85;;
55609;SDS011;41486;52.502;13.486;2023-09-08T06:14:05;9.65;;;6.03;;
55609;SDS011;41486;52.502;13.486;2023-09-08T06:16:38;7.40;;;5.95;;
55609;SDS011;41486;52.502;13.486;2023-09-08T06:19:07;8.57;;;6.97;;
55609;SDS011;41486;52.502;13.486;2023-09-08T06:21:35;7.07;;;5.80;;
55609;SDS011;41486;52.502;13.486;2023-09-08T06:24:05;9.80;;;6.28;;
55609;SDS011;41486;52.502;13.486;2023-09-08T06:26:34;7.30;;;6.00;;
55609;SDS011;41486;52.502;13.486;2023-09-08T06:29:05;7.78;;;5.38;;
55609;SDS011;41486;52.502;13.486;2023-09-08T06:31:34;5.95;;;5.32;;
55609;SDS011;41486;52.502;13.486;2023-09-08T06:34:03;10.63;;;6.05;;
55609;SDS011;41486;52.502;13.486;2023-09-08T06:36:32;8.95;;;6.10;;
55609;SDS011;41486;52.502;13.486;2023-09-08T06:39:01;10.82;;;8.82;;
55609;SDS011;41486;52.502;13.486;2023-09-08T06:41:31;9.20;;;6.53;;
55609;SDS011;41486;52.502;13.486;2023-09-08T06:44:03;9.15;;;5.70;;
55609;SDS011;41486;52.502;13.486;2023-09-08T06:46:33;9.48;;;6.57;;
55609;SDS011;41486;52.502;13.486;2023-09-08T06:49:01;13.52;;;6.50;;
55609;SDS011;41486;52.502;13.486;2023-09-08T06:51:31;6.60;;;5.53;;
55609;SDS011;41486;52.502;13.486;2023-09-08T06:53:59;6.07;;;5.18;;
55609;SDS011;41486;52.502;13.486;2023-09-08T06:56:35;10.25;;;5.90;;
55609;SDS011;41486;52.502;13.486;2023-09-08T06:59:06;6.53;;;5.82;;
55609;SDS011;41486;52.502;13.486;2023-09-08T07:01:34;7.93;;;5.82;;
55609;SDS011;41486;52.502;13.486;2023-09-08T07:04:04;8.80;;;5.60;;
55609;SDS011;41486;52.502;13.486;2023-09-08T07:06:32;6.72;;;5.10;;
55609;SDS011;41486;52.502;13.486;2023-09-08T07:09:02;10.02;;;5.53;;
55609;SDS011;41486;52.502;13.486;2023-09-08T07:11:31;5.82;;;5.20;;
55609;SDS011;41486;52.502;13.486;2023-09-08T07:13:59;6.40;;;5.13;;
55609;SDS011;41486;52.502;13.486;2023-09-08T07:16:29;7.20;;;4.80;;
55609;SDS011;41486;52.502;13.486;2023-09-08T07:18:57;6.45;;;4.95;;
55609;SDS011;41486;52.502;13.486;2023-09-08T07:21:29;6.68;;;5.28;;
55609;SDS011;41486;52.502;13.486;2023-09-08T07:24:02;5.23;;;4.57;;
55609;SDS011;41486;52.502;13.486;2023-09-08T07:26:30;7.50;;;5.03;;
55609;SDS011;41486;52.502;13.486;2023-09-08T07:29:01;6.82;;;4.90;;
55609;SDS011;41486;52.502;13.486;2023-09-08T07:31:33;6.03;;;4.80;;
55609;SDS011;41486;52.502;13.486;2023-09-08T07:34:04;20.17;;;14.68;;
55609;SDS011;41486;52.502;13.486;2023-09-08T07:36:33;7.72;;;6.18;;
55609;SDS011;41486;52.502;13.486;2023-09-08T07:39:03;8.07;;;6.45;;
55609;SDS011;41486;52.502;13.486;2023-09-08T07:41:31;8.50;;;7.53;;
55609;SDS011;41486;52.502;13.486;2023-09-08T07:44:00;9.13;;;7.68;;
55609;SDS011;41486;52.502;13.486;2023-09-08T07:46:28;10.55;;;8.20;;
55609;SDS011;41486;52.502;13.486;2023-09-08T07:49:03;8.68;;;4.88;;
55609;SDS011;41486;52.502;13.486;2023-09-08T07:51:32;8.15;;;5.40;;
55609;SDS011;41486;52.502;13.486;2023-09-08T07:54:00;6.22;;;5.50;;
55609;SDS011;41486;52.502;13.486;2023-09-08T07:56:30;7.75;;;4.90;;
55609;SDS011;41486;52.502;13.486;2023-09-08T07:58:59;5.90;;;4.70;;
55609;SDS011;41486;52.502;13.486;2023-09-08T08:01:27;8.20;;;5.47;;
55609;SDS011;41486;52.502;13.486;2023-09-08T08:03:55;6.15;;;4.75;;
55609;SDS011;41486;52.502;13.486;2023-09-08T08:06:25;7.03;;;4.30;;
55609;SDS011;41486;52.502;13.486;2023-09-08T08:08:54;6.53;;;4.68;;
55609;SDS011;41486;52.502;13.486;2023-09-08T08:11:22;6.82;;;4.80;;
55609;SDS011;41486;52.502;13.486;2023-09-08T08:13:52;6.13;;;4.57;;
55609;SDS011;41486;52.502;13.486;2023-09-08T08:16:20;7.53;;;5.18;;
55609;SDS011;41486;52.502;13.486;2023-09-08T08:18:48;8.90;;;5.57;;
55609;SDS011;41486;52.502;13.486;2023-09-08T08:21:16;5.75;;;4.40;;
55609;SDS011;41486;52.502;13.486;2023-09-08T08:23:46;7.00;;;5.13;;
55609;SDS011;41486;52.502;13.486;2023-09-08T08:26:14;6.88;;;4.88;;
55609;SDS011;41486;52.502;13.486;2023-09-08T08:28:42;6.65;;;4.85;;
55609;SDS011;41486;52.502;13.486;2023-09-08T08:31:10;6.60;;;4.63;;
55609;SDS011;41486;52.502;13.486;2023-09-08T08:33:38;5.75;;;4.28;;
55609;SDS011;41486;52.502;13.486;2023-09-08T08:36:06;8.00;;;4.47;;
55609;SDS011;41486;52.502;13.486;2023-09-08T08:38:36;8.95;;;4.97;;
55609;SDS011;41486;52.502;13.486;2023-09-08T08:41:05;6.50;;;4.57;;
55609;SDS011;41486;52.502;13.486;2023-09-08T08:43:34;7.68;;;4.75;;
55609;SDS011;41486;52.502;13.486;2023-09-08T08:46:02;6.63;;;4.20;;
55609;SDS011;41486;52.502;13.486;2023-09-08T08:48:32;6.18;;;4.20;;
55609;SDS011;41486;52.502;13.486;2023-09-08T08:51:01;6.65;;;4.50;;
55609;SDS011;41486;52.502;13.486;2023-09-08T08:53:31;6.25;;;4.35;;
55609;SDS011;41486;52.502;13.486;2023-09-08T08:55:59;6.20;;;4.30;;
55609;SDS011;41486;52.502;13.486;2023-09-08T08:58:30;5.78;;;4.55;;
55609;SDS011;41486;52.502;13.486;2023-09-08T09:00:59;5.38;;;4.15;;
55609;SDS011;41486;52.502;13.486;2023-09-08T09:03:27;6.25;;;4.15;;
55609;SDS011;41486;52.502;13.486;2023-09-08T09:05:57;7.10;;;4.50;;
55609;SDS011;41486;52.502;13.486;2023-09-08T09:08:25;4.68;;;3.78;;
55609;SDS011;41486;52.502;13.486;2023-09-08T09:10:56;7.78;;;4.07;;
55609;SDS011;41486;52.502;13.486;2023-09-08T09:13:25;6.30;;;4.10;;
55609;SDS011;41486;52.502;13.486;2023-09-08T09:15:54;8.35;;;3.55;;
55609;SDS011;41486;52.502;13.486;2023-09-08T09:18:26;4.72;;;3.72;;
55609;SDS011;41486;52.502;13.486;2023-09-08T09:20:58;5.18;;;3.67;;
55609;SDS011;41486;52.502;13.486;2023-09-08T09:23:27;7.07;;;4.85;;
55609;SDS011;41486;52.502;13.486;2023-09-08T09:25:56;5.68;;;3.83;;
55609;SDS011;41486;52.502;13.486;2023-09-08T09:28:26;9.18;;;5.13;;
55609;SDS011;41486;52.502;13.486;2023-09-08T09:30:59;11.48;;;8.32;;
55609;SDS011;41486;52.502;13.486;2023-09-08T09:33:27;8.70;;;5.32;;
55609;SDS011;41486;52.502;13.486;2023-09-08T09:35:56;5.32;;;3.88;;
55609;SDS011;41486;52.502;13.486;2023-09-08T09:38:26;6.07;;;4.43;;
55609;SDS011;41486;52.502;13.486;2023-09-08T09:40:54;7.13;;;4.40;;
55609;SDS011;41486;52.502;13.486;2023-09-08T09:43:23;4.15;;;3.30;;
55609;SDS011;41486;52.502;13.486;2023-09-08T09:45:51;5.93;;;3.58;;
55609;SDS011;41486;52.502;13.486;2023-09-08T09:48:24;7.38;;;4.80;;
55609;SDS011;41486;52.502;13.486;2023-09-08T09:50:53;4.35;;;3.45;;
55609;SDS011;41486;52.502;13.486;2023-09-08T09:53:21;5.70;;;4.57;;
55609;SDS011;41486;52.502;13.486;2023-09-08T09:55:50;7.65;;;4.00;;
55609;SDS011;41486;52.502;13.486;2023-09-08T09:58:19;3.90;;;2.97;;
55609;SDS011;41486;52.502;13.486;2023-09-08T10:00:49;6.60;;;3.70;;
55609;SDS011;41486;52.502;13.486;2023-09-08T10:03:18;5.25;;;4.15;;
55609;SDS011;41486;52.502;13.486;2023-09-08T10:05:49;6.93;;;3.25;;
55609;SDS011;41486;52.502;13.486;2023-09-08T10:08:17;7.32;;;3.70;;
55609;SDS011;41486;52.502;13.486;2023-09-08T10:10:45;6.07;;;3.60;;
55609;SDS011;41486;52.502;13.486;2023-09-08T10:13:14;5.97;;;3.03;;
55609;SDS011;41486;52.502;13.486;2023-09-08T10:15:50;3.92;;;3.30;;
55609;SDS011;41486;52.502;13.486;2023-09-08T10:18:20;3.58;;;3.00;;
55609;SDS011;41486;52.502;13.486;2023-09-08T10:20:51;6.63;;;3.47;;
55609;SDS011;41486;52.502;13.486;2023-09-08T10:23:26;4.63;;;2.80;;
55609;SDS011;41486;52.502;13.486;2023-09-08T10:25:59;5.90;;;5.30;;
55609;SDS011;41486;52.502;13.486;2023-09-08T10:28:31;8.98;;;3.30;;
55609;SDS011;41486;52.502;13.486;2023-09-08T10:31:00;6.70;;;3.75;;
55609;SDS011;41486;52.502;13.486;2023-09-08T10:33:29;5.25;;;3.28;;
55609;SDS011;41486;52.502;13.486;2023-09-08T10:36:00;8.15;;;4.95;;
55609;SDS011;41486;52.502;13.486;2023-09-08T10:38:34;5.72;;;2.90;;
55609;SDS011;41486;52.502;13.486;2023-09-08T10:44:01;4.75;;;3.33;;
55609;SDS011;41486;52.502;13.486;2023-09-08T10:46:33;6.47;;;4.40;;
55609;SDS011;41486;52.502;13.486;2023-09-08T10:49:02;5.10;;;3.45;;
55609;SDS011;41486;52.502;13.486;2023-09-08T10:51:32;7.40;;;3.72;;
55609;SDS011;41486;52.502;13.486;2023-09-08T10:54:02;4.95;;;3.25;;
55609;SDS011;41486;52.502;13.486;2023-09-08T10:56:46;4.68;;;3.08;;
55609;SDS011;41486;52.502;13.486;2023-09-08T10:59:16;3.53;;;3.05;;
55609;SDS011;41486;52.502;13.486;2023-09-08T11:01:45;3.45;;;3.10;;
55609;SDS011;41486;52.502;13.486;2023-09-08T11:04:15;3.75;;;2.65;;
55609;SDS011;41486;52.502;13.486;2023-09-08T11:06:47;4.15;;;2.78;;
55609;SDS011;41486;52.502;13.486;2023-09-08T11:09:16;8.77;;;4.22;;
55609;SDS011;41486;52.502;13.486;2023-09-08T11:11:45;5.70;;;4.55;;
55609;SDS011;41486;52.502;13.486;2023-09-08T11:14:13;4.72;;;3.95;;
55609;SDS011;41486;52.502;13.486;2023-09-08T11:16:42;5.20;;;3.60;;
55609;SDS011;41486;52.502;13.486;2023-09-08T11:19:10;5.72;;;3.30;;
55609;SDS011;41486;52.502;13.486;2023-09-08T11:21:39;4.25;;;3.42;;
55609;SDS011;41486;52.502;13.486;2023-09-08T11:24:09;5.03;;;4.53;;
55609;SDS011;41486;52.502;13.486;2023-09-08T11:26:42;3.85;;;3.45;;
55609;SDS011;41486;52.502;13.486;2023-09-08T11:29:13;4.40;;;2.92;;
55609;SDS011;41486;52.502;13.486;2023-09-08T11:31:41;3.80;;;3.40;;
55609;SDS011;41486;52.502;13.486;2023-09-08T11:34:11;4.90;;;3.53;;
55609;SDS011;41486;52.502;13.486;2023-09-08T11:36:41;6.13;;;5.20;;
55609;SDS011;41486;52.502;13.486;2023-09-08T11:39:10;4.10;;;3.47;;
55609;SDS011;41486;52.502;13.486;2023-09-08T11:41:38;4.43;;;2.92;;
55609;SDS011;41486;52.502;13.486;2023-09-08T11:44:07;3.70;;;3.28;;
55609;SDS011;41486;52.502;13.486;2023-09-08T11:46:35;3.38;;;2.90;;
55609;SDS011;41486;52.502;13.486;2023-09-08T11:49:04;3.85;;;2.85;;
55609;SDS011;41486;52.502;13.486;2023-09-08T11:51:32;4.70;;;3.20;;
55609;SDS011;41486;52.502;13.486;2023-09-08T11:54:01;6.00;;;3.28;;
55609;SDS011;41486;52.502;13.486;2023-09-08T11:56:31;3.22;;;2.65;;
55609;SDS011;41486;52.502;13.486;2023-09-08T11:58:59;3.65;;;2.90;;
55609;SDS011;41486;52.502;13.486;2023-09-08T12:01:28;3.60;;;3.05;;
55609;SDS011;41486;52.502;13.486;2023-09-08T12:03:56;3.60;;;2.75;;
55609;SDS011;41486;52.502;13.486;2023-09-08T12:06:25;3.25;;;2.90;;
55609;SDS011;41486;52.502;13.486;2023-09-08T12:08:55;2.85;;;2.63;;
55609;SDS011;41486;52.502;13.486;2023-09-08T12:11:23;3.70;;;2.90;;
55609;SDS011;41486;52.502;13.486;2023-09-08T12:14:00;4.57;;;2.90;;
55609;SDS011;41486;52.502;13.486;2023-09-08T12:16:33;6.95;;;6.25;;
55609;SDS011;41486;52.502;13.486;2023-09-08T12:19:02;6.63;;;3.38;;
55609;SDS011;41486;52.502;13.486;2023-09-08T12:21:30;4.07;;;2.92;;
55609;SDS011;41486;52.502;13.486;2023-09-08T12:23:59;4.57;;;2.95;;
55609;SDS011;41486;52.502;13.486;2023-09-08T12:26:27;4.78;;;2.80;;
55609;SDS011;41486;52.502;13.486;2023-09-08T12:28:56;5.03;;;2.90;;
55609;SDS011;41486;52.502;13.486;2023-09-08T12:31:26;2.95;;;2.67;;
55609;SDS011;41486;52.502;13.486;2023-09-08T12:33:54;3.20;;;2.90;;
55609;SDS011;41486;52.502;13.486;2023-09-08T12:36:23;5.40;;;2.85;;
55609;SDS011;41486;52.502;13.486;2023-09-08T12:38:51;2.90;;;2.60;;
55609;SDS011;41486;52.502;13.486;2023-09-08T12:41:20;4.53;;;2.40;;
55609;SDS011;41486;52.502;13.486;2023-09-08T12:43:48;4.38;;;2.95;;
55609;SDS011;41486;52.502;13.486;2023-09-08T12:46:16;3.40;;;2.58;;
55609;SDS011;41486;52.502;13.486;2023-09-08T12:48:47;3.60;;;2.58;;
55609;SDS011;41486;52.502;13.486;2023-09-08T12:51:15;4.70;;;3.28;;
55609;SDS011;41486;52.502;13.486;2023-09-08T12:53:43;4.47;;;3.50;;
55609;SDS011;41486;52.502;13.486;2023-09-08T12:56:11;3.08;;;2.78;;
55609;SDS011;41486;52.502;13.486;2023-09-08T12:58:39;4.13;;;2.90;;
55609;SDS011;41486;52.502;13.486;2023-09-08T13:01:07;3.92;;;2.92;;
55609;SDS011;41486;52.502;13.486;2023-09-08T13:03:37;4.70;;;2.47;;
55609;SDS011;41486;52.502;13.486;2023-09-08T13:06:07;2.58;;;2.38;;
55609;SDS011;41486;52.502;13.486;2023-09-08T13:08:36;2.95;;;2.30;;
55609;SDS011;41486;52.502;13.486;2023-09-08T13:11:05;2.83;;;2.40;;
55609;SDS011;41486;52.502;13.486;2023-09-08T13:13:33;6.93;;;2.67;;
55609;SDS011;41486;52.502;13.486;2023-09-08T13:16:01;2.95;;;2.45;;
55609;SDS011;41486;52.502;13.486;2023-09-08T13:18:30;4.18;;;2.35;;
55609;SDS011;41486;52.502;13.486;2023-09-08T13:21:02;3.33;;;2.72;;
55609;SDS011;41486;52.502;13.486;2023-09-08T13:23:33;3.63;;;2.42;;
55609;SDS011;41486;52.502;13.486;2023-09-08T13:26:01;2.72;;;2.45;;
55609;SDS011;41486;52.502;13.486;2023-09-08T13:28:29;3.10;;;2.42;;
55609;SDS011;41486;52.502;13.486;2023-09-08T13:31:00;4.20;;;2.60;;
55609;SDS011;41486;52.502;13.486;2023-09-08T13:33:28;3.15;;;2.70;;
55609;SDS011;41486;52.502;13.486;2023-09-08T13:35:57;2.72;;;2.30;;
55609;SDS011;41486;52.502;13.486;2023-09-08T13:38:25;7.90;;;6.10;;
55609;SDS011;41486;52.502;13.486;2023-09-08T13:40:54;4.60;;;3.35;;
55609;SDS011;41486;52.502;13.486;2023-09-08T13:43:23;3.20;;;2.90;;
55609;SDS011;41486;52.502;13.486;2023-09-08T13:45:51;3.90;;;2.47;;
55609;SDS011;41486;52.502;13.486;2023-09-08T13:48:19;5.85;;;2.72;;
55609;SDS011;41486;52.502;13.486;2023-09-08T13:50:48;2.80;;;2.28;;
55609;SDS011;41486;52.502;13.486;2023-09-08T13:53:17;4.57;;;2.60;;
55609;SDS011;41486;52.502;13.486;2023-09-08T13:55:48;4.18;;;2.30;;
55609;SDS011;41486;52.502;13.486;2023-09-08T13:58:19;2.80;;;2.50;;
55609;SDS011;41486;52.502;13.486;2023-09-08T14:00:51;2.58;;;2.30;;
55609;SDS011;41486;52.502;13.486;2023-09-08T14:03:25;5.38;;;2.65;;
55609;SDS011;41486;52.502;13.486;2023-09-08T14:05:56;4.50;;;2.90;;
55609;SDS011;41486;52.502;13.486;2023-09-08T14:08:38;2.80;;;2.50;;
55609;SDS011;41486;52.502;13.486;2023-09-08T14:11:26;3.70;;;2.97;;
55609;SDS011;41486;52.502;13.486;2023-09-08T14:13:59;3.85;;;2.80;;
55609;SDS011;41486;52.502;13.486;2023-09-08T14:16:27;3.40;;;2.38;;
55609;SDS011;41486;52.502;13.486;2023-09-08T14:18:57;4.53;;;2.88;;
55609;SDS011;41486;52.502;13.486;2023-09-08T14:21:26;8.48;;;6.85;;
55609;SDS011;41486;52.502;13.486;2023-09-08T14:23:57;3.50;;;2.50;;
55609;SDS011;41486;52.502;13.486;2023-09-08T14:26:25;9.18;;;6.97;;
55609;SDS011;41486;52.502;13.486;2023-09-08T14:28:53;4.22;;;3.03;;
55609;SDS011;41486;52.502;13.486;2023-09-08T14:31:23;5.80;;;2.80;;
55609;SDS011;41486;52.502;13.486;2023-09-08T14:33:53;3.05;;;2.75;;
55609;SDS011;41486;52.502;13.486;2023-09-08T14:36:21;3.83;;;2.83;;
55609;SDS011;41486;52.502;13.486;2023-09-08T14:38:53;4.50;;;2.65;;
55609;SDS011;41486;52.502;13.486;2023-09-08T14:41:22;3.08;;;2.60;;
55609;SDS011;41486;52.502;13.486;2023-09-08T14:43:50;5.35;;;2.80;;
55609;SDS011;41486;52.502;13.486;2023-09-08T14:46:19;3.45;;;2.63;;
55609;SDS011;41486;52.502;13.486;2023-09-08T14:48:49;4.03;;;2.72;;
55609;SDS011;41486;52.502;13.486;2023-09-08T14:51:17;3.25;;;2.50;;